sensor_id;sensor_type;location;lat;lon;timestamp;temperature;humidity
1377;DHT22;682;52.502;13.488;2022-10-12T00:02:02;7.20;1.00
1377;DHT22;682;52.502;13.488;2022-10-12T00:04:32;7.20;1.00
1377;DHT22;682;52.502;13.488;2022-10-12T00:07:01;7.20;1.00
1377;DHT22;682;52.502;13.488;2022-10-12T00:09:28;7.20;1.00
1377;DHT22;682;52.502;13.488;2022-10-12T00:11:55;7.20;1.00
1377;DHT22;682;52.502;13.488;2022-10-12T00:14:24;7.20;1.00
1377;DHT22;682;52.502;13.488;2022-10-12T00:16:53;7.10;1.00
1377;DHT22;682;52.502;13.488;2022-10-12T00:19:20;7.20;1.00
1377;DHT22;682;52.502;13.488;2022-10-12T00:21:49;7.20;1.00
1377;DHT22;682;52.502;13.488;2022-10-12T00:24:16;7.20;1.00
1377;DHT22;682;52.502;13.488;2022-10-12T00:26:43;7.20;1.00
1377;DHT22;682;52.502;13.488;2022-10-12T00:29:10;7.30;1.00
1377;DHT22;682;52.502;13.488;2022-10-12T00:31:39;7.20;1.00
1377;DHT22;682;52.502;13.488;2022-10-12T00:34:06;7.20;1.00
1377;DHT22;682;52.502;13.488;2022-10-12T00:36:34;7.10;1.00
1377;DHT22;682;52.502;13.488;2022-10-12T00:39:06;7.10;1.00
1377;DHT22;682;52.502;13.488;2022-10-12T00:41:35;7.10;1.00
1377;DHT22;682;52.502;13.488;2022-10-12T00:44:33;7.10;1.00
1377;DHT22;682;52.502;13.488;2022-10-12T00:47:03;7.00;1.00
1377;DHT22;682;52.502;13.488;2022-10-12T00:49:30;7.00;1.00
1377;DHT22;682;52.502;13.488;2022-10-12T00:52:03;7.00;1.00
1377;DHT22;682;52.502;13.488;2022-10-12T00:54:35;7.00;1.00
1377;DHT22;682;52.502;13.488;2022-10-12T00:57:04;7.00;1.00
1377;DHT22;682;52.502;13.488;2022-10-12T00:59:35;7.00;1.00
1377;DHT22;682;52.502;13.488;2022-10-12T01:02:02;7.00;1.00
1377;DHT22;682;52.502;13.488;2022-10-12T01:04:31;7.00;1.00
1377;DHT22;682;52.502;13.488;2022-10-12T01:07:00;7.00;1.00
1377;DHT22;682;52.502;13.488;2022-10-12T01:09:27;7.00;1.00
1377;DHT22;682;52.502;13.488;2022-10-12T01:11:56;7.00;1.00
1377;DHT22;682;52.502;13.488;2022-10-12T01:14:23;6.90;1.00
1377;DHT22;682;52.502;13.488;2022-10-12T01:16:53;6.90;1.00
1377;DHT22;682;52.502;13.488;2022-10-12T01:19:43;6.90;1.00
1377;DHT22;682;52.502;13.488;2022-10-12T01:22:16;6.80;1.00
1377;DHT22;682;52.502;13.488;2022-10-12T01:24:50;6.80;1.00
1377;DHT22;682;52.502;13.488;2022-10-12T01:27:48;6.70;1.00
1377;DHT22;682;52.502;13.488;2022-10-12T01:30:20;6.60;1.00
1377;DHT22;682;52.502;13.488;2022-10-12T01:33:10;6.60;1.00
1377;DHT22;682;52.502;13.488;2022-10-12T01:35:44;6.50;1.00
1377;DHT22;682;52.502;13.488;2022-10-12T01:38:23;6.60;1.00
1377;DHT22;682;52.502;13.488;2022-10-12T01:40:58;6.60;1.00
1377;DHT22;682;52.502;13.488;2022-10-12T01:43:32;6.60;1.00
1377;DHT22;682;52.502;13.488;2022-10-12T01:46:06;6.70;1.00
1377;DHT22;682;52.502;13.488;2022-10-12T01:48:33;6.70;1.00
1377;DHT22;682;52.502;13.488;2022-10-12T01:51:01;6.70;1.00
1377;DHT22;682;52.502;13.488;2022-10-12T01:53:37;6.70;1.00
1377;DHT22;682;52.502;13.488;2022-10-12T01:56:10;6.60;1.00
1377;DHT22;682;52.502;13.488;2022-10-12T01:58:55;6.60;1.00
1377;DHT22;682;52.502;13.488;2022-10-12T02:01:32;6.60;1.00
1377;DHT22;682;52.502;13.488;2022-10-12T02:04:06;6.50;1.00
1377;DHT22;682;52.502;13.488;2022-10-12T02:06:44;6.50;1.00
1377;DHT22;682;52.502;13.488;2022-10-12T02:09:17;6.50;1.00
1377;DHT22;682;52.502;13.488;2022-10-12T02:11:49;6.50;1.00
1377;DHT22;682;52.502;13.488;2022-10-12T02:14:19;6.40;1.00
1377;DHT22;682;52.502;13.488;2022-10-12T02:16:52;6.40;1.00
1377;DHT22;682;52.502;13.488;2022-10-12T02:19:24;6.40;1.00
1377;DHT22;682;52.502;13.488;2022-10-12T02:21:53;6.30;1.00
1377;DHT22;682;52.502;13.488;2022-10-12T02:24:23;6.30;1.00
1377;DHT22;682;52.502;13.488;2022-10-12T02:26:53;6.30;1.00
1377;DHT22;682;52.502;13.488;2022-10-12T02:29:26;6.30;1.00
1377;DHT22;682;52.502;13.488;2022-10-12T02:32:07;6.30;1.00
1377;DHT22;682;52.502;13.488;2022-10-12T02:34:43;6.20;1.00
1377;DHT22;682;52.502;13.488;2022-10-12T02:37:21;6.20;1.00
1377;DHT22;682;52.502;13.488;2022-10-12T02:39:53;6.20;1.00
1377;DHT22;682;52.502;13.488;2022-10-12T02:42:26;6.10;1.00
1377;DHT22;682;52.502;13.488;2022-10-12T02:45:09;6.10;1.00
1377;DHT22;682;52.502;13.488;2022-10-12T02:47:44;6.00;1.00
1377;DHT22;682;52.502;13.488;2022-10-12T02:50:14;6.10;1.00
1377;DHT22;682;52.502;13.488;2022-10-12T02:52:52;6.00;1.00
1377;DHT22;682;52.502;13.488;2022-10-12T02:55:23;5.90;1.00
1377;DHT22;682;52.502;13.488;2022-10-12T02:57:50;5.80;1.00
1377;DHT22;682;52.502;13.488;2022-10-12T03:00:18;5.80;1.00
1377;DHT22;682;52.502;13.488;2022-10-12T03:02:48;5.80;1.00
1377;DHT22;682;52.502;13.488;2022-10-12T03:05:15;5.80;1.00
1377;DHT22;682;52.502;13.488;2022-10-12T03:07:45;5.80;1.00
1377;DHT22;682;52.502;13.488;2022-10-12T03:10:15;5.80;1.00
1377;DHT22;682;52.502;13.488;2022-10-12T03:12:42;5.80;1.00
1377;DHT22;682;52.502;13.488;2022-10-12T03:15:09;5.80;1.00
1377;DHT22;682;52.502;13.488;2022-10-12T03:17:37;5.80;1.00
1377;DHT22;682;52.502;13.488;2022-10-12T03:20:06;5.80;1.00
1377;DHT22;682;52.502;13.488;2022-10-12T03:22:33;5.80;1.00
1377;DHT22;682;52.502;13.488;2022-10-12T03:24:59;5.80;1.00
1377;DHT22;682;52.502;13.488;2022-10-12T03:27:28;5.80;1.00
1377;DHT22;682;52.502;13.488;2022-10-12T03:29:54;5.70;1.00
1377;DHT22;682;52.502;13.488;2022-10-12T03:32:21;5.60;1.00
1377;DHT22;682;52.502;13.488;2022-10-12T03:34:48;5.60;1.00
1377;DHT22;682;52.502;13.488;2022-10-12T03:37:16;5.60;1.00
1377;DHT22;682;52.502;13.488;2022-10-12T03:39:43;5.60;1.00
1377;DHT22;682;52.502;13.488;2022-10-12T03:42:10;5.60;1.00
1377;DHT22;682;52.502;13.488;2022-10-12T03:44:38;5.60;1.00
1377;DHT22;682;52.502;13.488;2022-10-12T03:47:05;5.60;1.00
1377;DHT22;682;52.502;13.488;2022-10-12T03:49:33;5.50;1.00
1377;DHT22;682;52.502;13.488;2022-10-12T03:52:04;5.50;1.00
1377;DHT22;682;52.502;13.488;2022-10-12T03:54:33;5.50;1.00
1377;DHT22;682;52.502;13.488;2022-10-12T03:57:02;5.50;1.00
1377;DHT22;682;52.502;13.488;2022-10-12T03:59:29;5.50;1.00
1377;DHT22;682;52.502;13.488;2022-10-12T04:01:56;5.50;1.00
1377;DHT22;682;52.502;13.488;2022-10-12T04:04:26;5.50;1.00
1377;DHT22;682;52.502;13.488;2022-10-12T04:06:55;5.50;1.00
1377;DHT22;682;52.502;13.488;2022-10-12T04:09:22;5.50;1.00
1377;DHT22;682;52.502;13.488;2022-10-12T04:12:07;5.40;1.00
1377;DHT22;682;52.502;13.488;2022-10-12T04:14:45;5.50;1.00
1377;DHT22;682;52.502;13.488;2022-10-12T04:17:15;5.40;1.00
1377;DHT22;682;52.502;13.488;2022-10-12T04:19:44;5.50;1.00
1377;DHT22;682;52.502;13.488;2022-10-12T04:22:14;5.50;1.00
1377;DHT22;682;52.502;13.488;2022-10-12T04:25:04;5.50;1.00
1377;DHT22;682;52.502;13.488;2022-10-12T04:27:35;5.50;1.00
1377;DHT22;682;52.502;13.488;2022-10-12T04:30:02;5.50;1.00
1377;DHT22;682;52.502;13.488;2022-10-12T04:32:29;5.50;1.00
1377;DHT22;682;52.502;13.488;2022-10-12T04:35:07;5.50;1.00
1377;DHT22;682;52.502;13.488;2022-10-12T04:37:34;5.40;1.00
1377;DHT22;682;52.502;13.488;2022-10-12T04:40:01;5.50;1.00
1377;DHT22;682;52.502;13.488;2022-10-12T04:42:34;5.50;1.00
1377;DHT22;682;52.502;13.488;2022-10-12T04:45:03;5.50;1.00
1377;DHT22;682;52.502;13.488;2022-10-12T04:47:32;5.50;1.00
1377;DHT22;682;52.502;13.488;2022-10-12T04:49:59;5.50;1.00
1377;DHT22;682;52.502;13.488;2022-10-12T04:52:33;5.40;1.00
1377;DHT22;682;52.502;13.488;2022-10-12T04:55:03;5.30;1.00
1377;DHT22;682;52.502;13.488;2022-10-12T04:57:33;5.30;1.00
1377;DHT22;682;52.502;13.488;2022-10-12T05:00:07;5.30;1.00
1377;DHT22;682;52.502;13.488;2022-10-12T05:02:57;5.20;1.00
1377;DHT22;682;52.502;13.488;2022-10-12T05:05:27;5.20;1.00
1377;DHT22;682;52.502;13.488;2022-10-12T05:08:03;5.10;1.00
1377;DHT22;682;52.502;13.488;2022-10-12T05:10:36;5.10;1.00
1377;DHT22;682;52.502;13.488;2022-10-12T05:13:05;5.10;1.00
1377;DHT22;682;52.502;13.488;2022-10-12T05:15:35;5.20;1.00
1377;DHT22;682;52.502;13.488;2022-10-12T05:18:14;5.10;1.00
1377;DHT22;682;52.502;13.488;2022-10-12T05:20:43;5.20;1.00
1377;DHT22;682;52.502;13.488;2022-10-12T05:23:14;5.20;1.00
1377;DHT22;682;52.502;13.488;2022-10-12T05:25:41;5.20;1.00
1377;DHT22;682;52.502;13.488;2022-10-12T05:28:11;5.20;1.00
1377;DHT22;682;52.502;13.488;2022-10-12T05:30:41;5.30;1.00
1377;DHT22;682;52.502;13.488;2022-10-12T05:33:21;5.30;1.00
1377;DHT22;682;52.502;13.488;2022-10-12T05:35:51;5.40;1.00
1377;DHT22;682;52.502;13.488;2022-10-12T05:38:20;5.50;1.00
1377;DHT22;682;52.502;13.488;2022-10-12T05:40:52;5.50;1.00
1377;DHT22;682;52.502;13.488;2022-10-12T05:43:28;5.60;1.00
1377;DHT22;682;52.502;13.488;2022-10-12T05:45:55;5.60;1.00
1377;DHT22;682;52.502;13.488;2022-10-12T05:48:25;5.70;1.00
1377;DHT22;682;52.502;13.488;2022-10-12T05:50:52;5.60;1.00
1377;DHT22;682;52.502;13.488;2022-10-12T05:53:20;5.60;1.00
1377;DHT22;682;52.502;13.488;2022-10-12T05:55:53;5.70;1.00
1377;DHT22;682;52.502;13.488;2022-10-12T05:58:21;5.70;1.00
1377;DHT22;682;52.502;13.488;2022-10-12T06:00:51;5.70;1.00
1377;DHT22;682;52.502;13.488;2022-10-12T06:03:18;5.70;1.00
1377;DHT22;682;52.502;13.488;2022-10-12T06:05:46;5.70;1.00
1377;DHT22;682;52.502;13.488;2022-10-12T06:08:13;5.70;1.00
1377;DHT22;682;52.502;13.488;2022-10-12T06:10:45;5.70;1.00
1377;DHT22;682;52.502;13.488;2022-10-12T06:13:14;5.70;1.00
1377;DHT22;682;52.502;13.488;2022-10-12T06:15:43;5.80;1.00
1377;DHT22;682;52.502;13.488;2022-10-12T06:18:10;5.90;1.00
1377;DHT22;682;52.502;13.488;2022-10-12T06:20:37;6.00;1.00
1377;DHT22;682;52.502;13.488;2022-10-12T06:23:05;6.10;1.00
1377;DHT22;682;52.502;13.488;2022-10-12T06:25:32;6.10;1.00
1377;DHT22;682;52.502;13.488;2022-10-12T06:27:59;6.20;1.00
1377;DHT22;682;52.502;13.488;2022-10-12T06:30:26;6.30;1.00
1377;DHT22;682;52.502;13.488;2022-10-12T06:32:53;6.30;1.00
1377;DHT22;682;52.502;13.488;2022-10-12T06:35:23;6.40;1.00
1377;DHT22;682;52.502;13.488;2022-10-12T06:37:57;6.40;1.00
1377;DHT22;682;52.502;13.488;2022-10-12T06:40:34;6.50;1.00
1377;DHT22;682;52.502;13.488;2022-10-12T06:43:06;6.60;1.00
1377;DHT22;682;52.502;13.488;2022-10-12T06:45:36;6.60;1.00
1377;DHT22;682;52.502;13.488;2022-10-12T06:48:05;6.70;1.00
1377;DHT22;682;52.502;13.488;2022-10-12T06:50:34;6.70;1.00
1377;DHT22;682;52.502;13.488;2022-10-12T06:53:04;6.80;1.00
1377;DHT22;682;52.502;13.488;2022-10-12T06:55:37;6.90;1.00
1377;DHT22;682;52.502;13.488;2022-10-12T06:58:07;7.00;1.00
1377;DHT22;682;52.502;13.488;2022-10-12T07:00:41;7.10;1.00
1377;DHT22;682;52.502;13.488;2022-10-12T07:03:11;7.20;1.00
1377;DHT22;682;52.502;13.488;2022-10-12T07:05:41;7.30;1.00
1377;DHT22;682;52.502;13.488;2022-10-12T07:08:07;7.40;1.00
1377;DHT22;682;52.502;13.488;2022-10-12T07:10:43;7.50;1.00
1377;DHT22;682;52.502;13.488;2022-10-12T07:13:17;7.60;1.00
1377;DHT22;682;52.502;13.488;2022-10-12T07:15:51;7.70;1.00
1377;DHT22;682;52.502;13.488;2022-10-12T07:18:29;7.80;1.00
1377;DHT22;682;52.502;13.488;2022-10-12T07:21:15;8.00;1.00
1377;DHT22;682;52.502;13.488;2022-10-12T07:23:45;8.10;1.00
1377;DHT22;682;52.502;13.488;2022-10-12T07:26:16;8.20;1.00
1377;DHT22;682;52.502;13.488;2022-10-12T07:28:44;8.40;1.00
1377;DHT22;682;52.502;13.488;2022-10-12T07:31:15;8.50;1.00
1377;DHT22;682;52.502;13.488;2022-10-12T07:33:44;8.70;1.00
1377;DHT22;682;52.502;13.488;2022-10-12T07:36:14;8.80;1.00
1377;DHT22;682;52.502;13.488;2022-10-12T07:38:42;9.00;1.00
1377;DHT22;682;52.502;13.488;2022-10-12T07:41:18;9.20;1.00
1377;DHT22;682;52.502;13.488;2022-10-12T07:43:47;9.20;1.00
1377;DHT22;682;52.502;13.488;2022-10-12T07:46:15;9.30;1.00
1377;DHT22;682;52.502;13.488;2022-10-12T07:48:46;9.40;1.00
1377;DHT22;682;52.502;13.488;2022-10-12T07:51:14;9.60;1.00
1377;DHT22;682;52.502;13.488;2022-10-12T07:54:04;9.70;1.00
1377;DHT22;682;52.502;13.488;2022-10-12T07:56:36;9.90;1.00
1377;DHT22;682;52.502;13.488;2022-10-12T07:59:06;10.10;1.00
1377;DHT22;682;52.502;13.488;2022-10-12T08:01:35;10.20;1.00
1377;DHT22;682;52.502;13.488;2022-10-12T08:04:05;10.40;1.00
1377;DHT22;682;52.502;13.488;2022-10-12T08:06:34;10.50;1.00
1377;DHT22;682;52.502;13.488;2022-10-12T08:09:05;10.70;1.00
1377;DHT22;682;52.502;13.488;2022-10-12T08:11:37;10.90;1.00
1377;DHT22;682;52.502;13.488;2022-10-12T08:14:05;11.00;1.00
1377;DHT22;682;52.502;13.488;2022-10-12T08:16:36;11.20;1.00
1377;DHT22;682;52.502;13.488;2022-10-12T08:19:05;11.30;1.00
1377;DHT22;682;52.502;13.488;2022-10-12T08:21:35;11.60;1.00
1377;DHT22;682;52.502;13.488;2022-10-12T08:24:05;11.70;1.00
1377;DHT22;682;52.502;13.488;2022-10-12T08:26:37;12.00;1.00
1377;DHT22;682;52.502;13.488;2022-10-12T08:29:07;12.60;1.00
1377;DHT22;682;52.502;13.488;2022-10-12T08:31:37;13.70;1.00
1377;DHT22;682;52.502;13.488;2022-10-12T08:34:15;14.70;1.00
1377;DHT22;682;52.502;13.488;2022-10-12T08:36:46;15.80;1.00
1377;DHT22;682;52.502;13.488;2022-10-12T08:39:16;17.10;1.00
1377;DHT22;682;52.502;13.488;2022-10-12T08:41:53;18.30;1.00
1377;DHT22;682;52.502;13.488;2022-10-12T08:44:43;19.10;1.00
1377;DHT22;682;52.502;13.488;2022-10-12T08:47:14;20.00;1.00
1377;DHT22;682;52.502;13.488;2022-10-12T08:49:46;21.00;1.00
1377;DHT22;682;52.502;13.488;2022-10-12T08:52:25;21.50;1.00
1377;DHT22;682;52.502;13.488;2022-10-12T08:54:59;21.90;1.00
1377;DHT22;682;52.502;13.488;2022-10-12T08:57:45;21.80;1.00
1377;DHT22;682;52.502;13.488;2022-10-12T09:00:16;22.40;1.00
1377;DHT22;682;52.502;13.488;2022-10-12T09:02:58;22.90;1.00
1377;DHT22;682;52.502;13.488;2022-10-12T09:05:39;23.90;1.00
1377;DHT22;682;52.502;13.488;2022-10-12T09:08:27;24.50;1.00
1377;DHT22;682;52.502;13.488;2022-10-12T09:11:19;25.20;1.00
1377;DHT22;682;52.502;13.488;2022-10-12T09:14:05;24.40;1.00
1377;DHT22;682;52.502;13.488;2022-10-12T09:16:47;23.00;1.00
1377;DHT22;682;52.502;13.488;2022-10-12T09:19:18;22.40;1.00
1377;DHT22;682;52.502;13.488;2022-10-12T09:21:57;21.70;1.00
1377;DHT22;682;52.502;13.488;2022-10-12T09:24:38;21.00;1.00
1377;DHT22;682;52.502;13.488;2022-10-12T09:27:17;20.40;1.00
1377;DHT22;682;52.502;13.488;2022-10-12T09:29:47;19.50;1.00
1377;DHT22;682;52.502;13.488;2022-10-12T09:32:38;18.40;1.00
1377;DHT22;682;52.502;13.488;2022-10-12T09:35:15;18.20;1.00
1377;DHT22;682;52.502;13.488;2022-10-12T09:37:55;17.90;1.00
1377;DHT22;682;52.502;13.488;2022-10-12T09:40:38;17.40;1.00
1377;DHT22;682;52.502;13.488;2022-10-12T09:43:08;17.40;1.00
1377;DHT22;682;52.502;13.488;2022-10-12T09:45:44;17.80;1.00
1377;DHT22;682;52.502;13.488;2022-10-12T09:48:17;17.80;1.00
1377;DHT22;682;52.502;13.488;2022-10-12T09:50:54;17.80;1.00
1377;DHT22;682;52.502;13.488;2022-10-12T09:53:32;17.80;1.00
1377;DHT22;682;52.502;13.488;2022-10-12T09:56:21;18.10;1.00
1377;DHT22;682;52.502;13.488;2022-10-12T09:58:54;18.70;1.00
1377;DHT22;682;52.502;13.488;2022-10-12T10:01:25;19.40;1.00
1377;DHT22;682;52.502;13.488;2022-10-12T10:04:21;19.30;1.00
1377;DHT22;682;52.502;13.488;2022-10-12T10:06:52;18.50;1.00
1377;DHT22;682;52.502;13.488;2022-10-12T10:09:27;18.70;1.00
1377;DHT22;682;52.502;13.488;2022-10-12T10:12:19;19.70;1.00
1377;DHT22;682;52.502;13.488;2022-10-12T10:14:58;19.80;1.00
1377;DHT22;682;52.502;13.488;2022-10-12T10:17:32;18.90;1.00
1377;DHT22;682;52.502;13.488;2022-10-12T10:20:05;18.50;1.00
1377;DHT22;682;52.502;13.488;2022-10-12T10:22:34;18.00;1.00
1377;DHT22;682;52.502;13.488;2022-10-12T10:25:05;18.00;1.00
1377;DHT22;682;52.502;13.488;2022-10-12T10:27:36;19.00;1.00
1377;DHT22;682;52.502;13.488;2022-10-12T10:33:08;19.80;1.00
1377;DHT22;682;52.502;13.488;2022-10-12T10:35:37;19.40;1.00
1377;DHT22;682;52.502;13.488;2022-10-12T10:38:13;19.20;1.00
1377;DHT22;682;52.502;13.488;2022-10-12T10:40:50;20.10;1.00
1377;DHT22;682;52.502;13.488;2022-10-12T10:43:24;21.20;1.00
1377;DHT22;682;52.502;13.488;2022-10-12T10:45:57;21.30;1.00
1377;DHT22;682;52.502;13.488;2022-10-12T10:48:49;20.60;1.00
1377;DHT22;682;52.502;13.488;2022-10-12T10:51:20;20.40;1.00
1377;DHT22;682;52.502;13.488;2022-10-12T10:53:54;20.30;1.00
1377;DHT22;682;52.502;13.488;2022-10-12T10:56:44;20.10;1.00
1377;DHT22;682;52.502;13.488;2022-10-12T10:59:20;19.90;1.00
1377;DHT22;682;52.502;13.488;2022-10-12T11:01:55;19.50;1.00
1377;DHT22;682;52.502;13.488;2022-10-12T11:04:28;19.90;1.00
1377;DHT22;682;52.502;13.488;2022-10-12T11:07:16;20.10;1.00
1377;DHT22;682;52.502;13.488;2022-10-12T11:09:54;20.90;1.00
1377;DHT22;682;52.502;13.488;2022-10-12T11:12:25;21.60;1.00
1377;DHT22;682;52.502;13.488;2022-10-12T11:14:57;23.00;1.00
1377;DHT22;682;52.502;13.488;2022-10-12T11:17:29;25.70;1.00
1377;DHT22;682;52.502;13.488;2022-10-12T11:20:05;28.60;1.00
1377;DHT22;682;52.502;13.488;2022-10-12T11:22:47;29.90;1.00
1377;DHT22;682;52.502;13.488;2022-10-12T11:25:22;30.70;1.00
1377;DHT22;682;52.502;13.488;2022-10-12T11:27:50;30.90;1.00
1377;DHT22;682;52.502;13.488;2022-10-12T11:30:20;28.90;1.00
1377;DHT22;682;52.502;13.488;2022-10-12T11:32:52;26.60;1.00
1377;DHT22;682;52.502;13.488;2022-10-12T11:35:25;25.70;1.00
1377;DHT22;682;52.502;13.488;2022-10-12T11:37:56;26.50;1.00
1377;DHT22;682;52.502;13.488;2022-10-12T11:40:27;27.10;1.00
1377;DHT22;682;52.502;13.488;2022-10-12T11:42:54;27.90;1.00
1377;DHT22;682;52.502;13.488;2022-10-12T11:45:27;29.50;1.00
1377;DHT22;682;52.502;13.488;2022-10-12T11:47:59;29.10;1.00
1377;DHT22;682;52.502;13.488;2022-10-12T11:50:33;30.50;1.00
1377;DHT22;682;52.502;13.488;2022-10-12T11:53:04;31.30;1.00
1377;DHT22;682;52.502;13.488;2022-10-12T11:58:25;30.30;1.00
1377;DHT22;682;52.502;13.488;2022-10-12T12:01:20;29.90;1.00
1377;DHT22;682;52.502;13.488;2022-10-12T12:04:27;30.40;1.00
1377;DHT22;682;52.502;13.488;2022-10-12T12:06:58;28.90;1.00
1377;DHT22;682;52.502;13.488;2022-10-12T12:09:37;26.30;1.00
1377;DHT22;682;52.502;13.488;2022-10-12T12:12:20;25.20;1.00
1377;DHT22;682;52.502;13.488;2022-10-12T12:15:06;24.60;1.00
1377;DHT22;682;52.502;13.488;2022-10-12T12:17:35;24.00;1.00
1377;DHT22;682;52.502;13.488;2022-10-12T12:23:18;22.30;1.00
1377;DHT22;682;52.502;13.488;2022-10-12T12:28:49;21.60;1.00
1377;DHT22;682;52.502;13.488;2022-10-12T12:31:26;21.30;1.00
1377;DHT22;682;52.502;13.488;2022-10-12T12:34:03;20.70;1.00
1377;DHT22;682;52.502;13.488;2022-10-12T12:36:38;20.00;1.00
1377;DHT22;682;52.502;13.488;2022-10-12T12:39:26;20.00;1.00
1377;DHT22;682;52.502;13.488;2022-10-12T12:41:57;20.40;1.00
1377;DHT22;682;52.502;13.488;2022-10-12T12:44:37;21.40;1.00
1377;DHT22;682;52.502;13.488;2022-10-12T12:47:21;21.80;1.00
1377;DHT22;682;52.502;13.488;2022-10-12T12:50:29;21.30;1.00
1377;DHT22;682;52.502;13.488;2022-10-12T12:53:07;21.40;1.00
1377;DHT22;682;52.502;13.488;2022-10-12T12:56:16;21.40;1.00
1377;DHT22;682;52.502;13.488;2022-10-12T12:59:38;20.70;1.00
1377;DHT22;682;52.502;13.488;2022-10-12T13:05:49;21.70;1.00
1377;DHT22;682;52.502;13.488;2022-10-12T13:08:38;21.50;1.00
1377;DHT22;682;52.502;13.488;2022-10-12T13:11:38;21.50;1.00
1377;DHT22;682;52.502;13.488;2022-10-12T13:14:35;21.40;1.00
1377;DHT22;682;52.502;13.488;2022-10-12T13:17:20;22.00;1.00
1377;DHT22;682;52.502;13.488;2022-10-12T13:19:59;22.10;1.00
1377;DHT22;682;52.502;13.488;2022-10-12T13:22:48;21.20;1.00
1377;DHT22;682;52.502;13.488;2022-10-12T13:25:45;20.50;1.00
1377;DHT22;682;52.502;13.488;2022-10-12T13:28:30;20.00;1.00
1377;DHT22;682;52.502;13.488;2022-10-12T13:31:17;19.80;1.00
1377;DHT22;682;52.502;13.488;2022-10-12T13:33:59;19.60;1.00
1377;DHT22;682;52.502;13.488;2022-10-12T13:36:31;19.50;1.00
1377;DHT22;682;52.502;13.488;2022-10-12T13:39:11;19.20;1.00
1377;DHT22;682;52.502;13.488;2022-10-12T13:41:48;18.80;1.00
1377;DHT22;682;52.502;13.488;2022-10-12T13:44:27;18.30;1.00
1377;DHT22;682;52.502;13.488;2022-10-12T13:46:55;18.00;1.00
1377;DHT22;682;52.502;13.488;2022-10-12T13:49:25;18.00;1.00
1377;DHT22;682;52.502;13.488;2022-10-12T13:51:55;18.00;1.00
1377;DHT22;682;52.502;13.488;2022-10-12T13:54:23;17.70;1.00
1377;DHT22;682;52.502;13.488;2022-10-12T13:56:55;17.80;1.00
1377;DHT22;682;52.502;13.488;2022-10-12T13:59:26;17.80;1.00
1377;DHT22;682;52.502;13.488;2022-10-12T14:01:55;17.80;1.00
1377;DHT22;682;52.502;13.488;2022-10-12T14:04:28;17.80;1.00
1377;DHT22;682;52.502;13.488;2022-10-12T14:06:58;17.90;1.00
1377;DHT22;682;52.502;13.488;2022-10-12T14:09:38;18.00;1.00
1377;DHT22;682;52.502;13.488;2022-10-12T14:12:06;17.90;1.00
1377;DHT22;682;52.502;13.488;2022-10-12T14:14:36;17.70;1.00
1377;DHT22;682;52.502;13.488;2022-10-12T14:17:13;17.60;1.00
1377;DHT22;682;52.502;13.488;2022-10-12T14:19:47;17.60;1.00
1377;DHT22;682;52.502;13.488;2022-10-12T14:22:20;17.20;1.00
1377;DHT22;682;52.502;13.488;2022-10-12T14:24:48;17.20;1.00
1377;DHT22;682;52.502;13.488;2022-10-12T14:27:22;17.00;1.00
1377;DHT22;682;52.502;13.488;2022-10-12T14:29:52;17.00;1.00
1377;DHT22;682;52.502;13.488;2022-10-12T14:32:39;17.00;1.00
1377;DHT22;682;52.502;13.488;2022-10-12T14:35:20;16.90;1.00
1377;DHT22;682;52.502;13.488;2022-10-12T14:37:52;16.90;1.00
1377;DHT22;682;52.502;13.488;2022-10-12T14:40:30;16.80;1.00
1377;DHT22;682;52.502;13.488;2022-10-12T14:43:00;16.80;1.00
1377;DHT22;682;52.502;13.488;2022-10-12T14:45:34;16.80;1.00
1377;DHT22;682;52.502;13.488;2022-10-12T14:48:01;16.80;1.00
1377;DHT22;682;52.502;13.488;2022-10-12T14:50:31;16.70;1.00
1377;DHT22;682;52.502;13.488;2022-10-12T14:53:00;16.60;1.00
1377;DHT22;682;52.502;13.488;2022-10-12T14:55:30;16.50;1.00
1377;DHT22;682;52.502;13.488;2022-10-12T14:57:57;16.50;1.00
1377;DHT22;682;52.502;13.488;2022-10-12T15:00:27;16.40;1.00
1377;DHT22;682;52.502;13.488;2022-10-12T15:02:58;16.30;1.00
1377;DHT22;682;52.502;13.488;2022-10-12T15:05:27;16.20;1.00
1377;DHT22;682;52.502;13.488;2022-10-12T15:07:56;16.10;1.00
1377;DHT22;682;52.502;13.488;2022-10-12T15:10:24;16.10;1.00
1377;DHT22;682;52.502;13.488;2022-10-12T15:12:53;16.10;1.00
1377;DHT22;682;52.502;13.488;2022-10-12T15:15:28;16.00;1.00
1377;DHT22;682;52.502;13.488;2022-10-12T15:17:57;16.10;1.00
1377;DHT22;682;52.502;13.488;2022-10-12T15:20:33;16.00;1.00
1377;DHT22;682;52.502;13.488;2022-10-12T15:23:14;16.00;1.00
1377;DHT22;682;52.502;13.488;2022-10-12T15:25:44;15.90;1.00
1377;DHT22;682;52.502;13.488;2022-10-12T15:28:15;15.80;1.00
1377;DHT22;682;52.502;13.488;2022-10-12T15:30:42;15.70;1.00
1377;DHT22;682;52.502;13.488;2022-10-12T15:33:12;15.60;1.00
1377;DHT22;682;52.502;13.488;2022-10-12T15:35:39;15.50;1.00
1377;DHT22;682;52.502;13.488;2022-10-12T15:38:07;15.50;1.00
1377;DHT22;682;52.502;13.488;2022-10-12T15:40:37;15.40;1.00
1377;DHT22;682;52.502;13.488;2022-10-12T15:43:05;15.40;1.00
1377;DHT22;682;52.502;13.488;2022-10-12T15:45:33;15.40;1.00
1377;DHT22;682;52.502;13.488;2022-10-12T15:48:02;15.30;1.00
1377;DHT22;682;52.502;13.488;2022-10-12T15:50:36;15.30;1.00
1377;DHT22;682;52.502;13.488;2022-10-12T15:53:03;15.10;1.00
1377;DHT22;682;52.502;13.488;2022-10-12T15:55:32;15.10;1.00
1377;DHT22;682;52.502;13.488;2022-10-12T15:57:59;15.10;1.00
1377;DHT22;682;52.502;13.488;2022-10-12T16:00:27;15.00;1.00
1377;DHT22;682;52.502;13.488;2022-10-12T16:02:57;15.00;1.00
1377;DHT22;682;52.502;13.488;2022-10-12T16:05:28;14.90;1.00
1377;DHT22;682;52.502;13.488;2022-10-12T16:08:01;14.90;1.00
1377;DHT22;682;52.502;13.488;2022-10-12T16:10:30;14.70;1.00
1377;DHT22;682;52.502;13.488;2022-10-12T16:12:58;14.60;1.00
1377;DHT22;682;52.502;13.488;2022-10-12T16:15:27;14.50;1.00
1377;DHT22;682;52.502;13.488;2022-10-12T16:17:55;14.40;1.00
1377;DHT22;682;52.502;13.488;2022-10-12T16:20:23;14.40;1.00
1377;DHT22;682;52.502;13.488;2022-10-12T16:22:50;14.30;1.00
1377;DHT22;682;52.502;13.488;2022-10-12T16:25:21;14.20;1.00
1377;DHT22;682;52.502;13.488;2022-10-12T16:27:49;14.20;1.00
1377;DHT22;682;52.502;13.488;2022-10-12T16:30:17;14.00;1.00
1377;DHT22;682;52.502;13.488;2022-10-12T16:32:48;14.00;1.00
1377;DHT22;682;52.502;13.488;2022-10-12T16:35:18;13.90;1.00
1377;DHT22;682;52.502;13.488;2022-10-12T16:37:45;13.80;1.00
1377;DHT22;682;52.502;13.488;2022-10-12T16:40:12;13.70;1.00
1377;DHT22;682;52.502;13.488;2022-10-12T16:42:43;13.70;1.00
1377;DHT22;682;52.502;13.488;2022-10-12T16:45:10;13.60;1.00
1377;DHT22;682;52.502;13.488;2022-10-12T16:47:37;13.60;1.00
1377;DHT22;682;52.502;13.488;2022-10-12T16:50:08;13.50;1.00
1377;DHT22;682;52.502;13.488;2022-10-12T16:52:35;13.40;1.00
1377;DHT22;682;52.502;13.488;2022-10-12T16:55:03;13.30;1.00
1377;DHT22;682;52.502;13.488;2022-10-12T16:57:30;13.30;1.00
1377;DHT22;682;52.502;13.488;2022-10-12T16:59:58;13.20;1.00
1377;DHT22;682;52.502;13.488;2022-10-12T17:02:27;13.10;1.00
1377;DHT22;682;52.502;13.488;2022-10-12T17:04:54;13.10;1.00
1377;DHT22;682;52.502;13.488;2022-10-12T17:07:24;13.10;1.00
1377;DHT22;682;52.502;13.488;2022-10-12T17:09:52;13.00;1.00
1377;DHT22;682;52.502;13.488;2022-10-12T17:12:20;12.90;1.00
1377;DHT22;682;52.502;13.488;2022-10-12T17:14:47;12.90;1.00
1377;DHT22;682;52.502;13.488;2022-10-12T17:17:15;12.80;1.00
1377;DHT22;682;52.502;13.488;2022-10-12T17:19:42;12.80;1.00